sensor_id;sensor_type;location;lat;lon;timestamp;temperature;humidity
29501;DHT22;16450;50.288;10.966;2023-01-10T00:01:16;4.30;99.90
29501;DHT22;16450;50.288;10.966;2023-01-10T00:04:17;4.20;99.90
29501;DHT22;16450;50.288;10.966;2023-01-10T00:07:18;4.20;99.90
29501;DHT22;16450;50.288;10.966;2023-01-10T00:10:19;4.20;99.90
29501;DHT22;16450;50.288;10.966;2023-01-10T00:13:19;4.20;99.90
29501;DHT22;16450;50.288;10.966;2023-01-10T00:16:23;4.20;99.90
29501;DHT22;16450;50.288;10.966;2023-01-10T00:19:23;4.20;99.90
29501;DHT22;16450;50.288;10.966;2023-01-10T00:22:24;4.20;99.90
29501;DHT22;16450;50.288;10.966;2023-01-10T00:25:28;4.20;99.90
29501;DHT22;16450;50.288;10.966;2023-01-10T00:28:29;4.30;99.90
29501;DHT22;16450;50.288;10.966;2023-01-10T00:31:33;4.30;99.90
29501;DHT22;16450;50.288;10.966;2023-01-10T00:34:34;4.30;99.90
29501;DHT22;16450;50.288;10.966;2023-01-10T00:37:37;4.30;99.90
29501;DHT22;16450;50.288;10.966;2023-01-10T00:40:38;4.30;99.90
29501;DHT22;16450;50.288;10.966;2023-01-10T00:43:39;4.30;99.90
29501;DHT22;16450;50.288;10.966;2023-01-10T00:46:57;4.30;99.90
29501;DHT22;16450;50.288;10.966;2023-01-10T00:49:58;4.30;99.90
29501;DHT22;16450;50.288;10.966;2023-01-10T00:52:59;4.40;99.90
29501;DHT22;16450;50.288;10.966;2023-01-10T00:55:59;4.40;99.90
29501;DHT22;16450;50.288;10.966;2023-01-10T00:59:00;4.40;99.90
29501;DHT22;16450;50.288;10.966;2023-01-10T01:02:01;4.40;99.90
29501;DHT22;16450;50.288;10.966;2023-01-10T01:05:03;4.40;99.90
29501;DHT22;16450;50.288;10.966;2023-01-10T01:08:04;4.40;99.90
29501;DHT22;16450;50.288;10.966;2023-01-10T01:11:05;4.30;99.90
29501;DHT22;16450;50.288;10.966;2023-01-10T01:14:05;4.40;99.90
29501;DHT22;16450;50.288;10.966;2023-01-10T01:17:06;4.40;99.90
29501;DHT22;16450;50.288;10.966;2023-01-10T01:20:07;4.40;99.90
29501;DHT22;16450;50.288;10.966;2023-01-10T01:23:08;4.40;99.90
29501;DHT22;16450;50.288;10.966;2023-01-10T01:26:09;4.30;99.90
29501;DHT22;16450;50.288;10.966;2023-01-10T01:29:10;4.30;99.90
29501;DHT22;16450;50.288;10.966;2023-01-10T01:32:11;4.30;99.90
29501;DHT22;16450;50.288;10.966;2023-01-10T01:35:13;4.30;99.90
29501;DHT22;16450;50.288;10.966;2023-01-10T01:38:15;4.30;99.90
29501;DHT22;16450;50.288;10.966;2023-01-10T01:41:16;4.30;99.90
29501;DHT22;16450;50.288;10.966;2023-01-10T01:44:37;4.30;99.90
29501;DHT22;16450;50.288;10.966;2023-01-10T01:50:58;4.30;99.90
29501;DHT22;16450;50.288;10.966;2023-01-10T01:54:06;4.30;99.90
29501;DHT22;16450;50.288;10.966;2023-01-10T01:57:14;4.40;99.90
29501;DHT22;16450;50.288;10.966;2023-01-10T02:00:17;4.30;99.90
29501;DHT22;16450;50.288;10.966;2023-01-10T02:03:17;4.30;99.90
29501;DHT22;16450;50.288;10.966;2023-01-10T02:06:19;4.30;99.90
29501;DHT22;16450;50.288;10.966;2023-01-10T02:09:28;4.30;99.90
29501;DHT22;16450;50.288;10.966;2023-01-10T02:12:31;4.30;99.90
29501;DHT22;16450;50.288;10.966;2023-01-10T02:15:32;4.30;99.90
29501;DHT22;16450;50.288;10.966;2023-01-10T02:18:34;4.30;99.90
29501;DHT22;16450;50.288;10.966;2023-01-10T02:42:12;4.30;99.90
29501;DHT22;16450;50.288;10.966;2023-01-10T02:47:58;4.20;99.90
29501;DHT22;16450;50.288;10.966;2023-01-10T02:54:12;4.20;99.90
29501;DHT22;16450;50.288;10.966;2023-01-10T03:00:44;4.10;99.90
29501;DHT22;16450;50.288;10.966;2023-01-10T03:03:56;4.20;99.90
29501;DHT22;16450;50.288;10.966;2023-01-10T03:07:11;4.10;99.90
29501;DHT22;16450;50.288;10.966;2023-01-10T03:13:59;4.20;99.90
29501;DHT22;16450;50.288;10.966;2023-01-10T03:17:05;4.20;99.90
29501;DHT22;16450;50.288;10.966;2023-01-10T03:20:06;4.20;99.90
29501;DHT22;16450;50.288;10.966;2023-01-10T03:23:08;4.20;99.90
29501;DHT22;16450;50.288;10.966;2023-01-10T03:26:10;4.20;99.90
29501;DHT22;16450;50.288;10.966;2023-01-10T03:29:11;4.20;99.90
29501;DHT22;16450;50.288;10.966;2023-01-10T03:32:20;4.20;99.90
29501;DHT22;16450;50.288;10.966;2023-01-10T03:35:25;4.20;99.90
29501;DHT22;16450;50.288;10.966;2023-01-10T03:42:04;4.20;99.90
29501;DHT22;16450;50.288;10.966;2023-01-10T03:45:09;4.20;99.90
29501;DHT22;16450;50.288;10.966;2023-01-10T03:48:14;4.20;99.90
29501;DHT22;16450;50.288;10.966;2023-01-10T03:51:17;4.20;99.90
29501;DHT22;16450;50.288;10.966;2023-01-10T03:54:19;4.20;99.90
29501;DHT22;16450;50.288;10.966;2023-01-10T03:57:23;4.20;99.90
29501;DHT22;16450;50.288;10.966;2023-01-10T04:00:24;4.20;99.90
29501;DHT22;16450;50.288;10.966;2023-01-10T04:03:25;4.20;99.90
29501;DHT22;16450;50.288;10.966;2023-01-10T04:06:26;4.20;99.90
29501;DHT22;16450;50.288;10.966;2023-01-10T04:09:26;4.20;99.90
29501;DHT22;16450;50.288;10.966;2023-01-10T04:12:27;4.20;99.90
29501;DHT22;16450;50.288;10.966;2023-01-10T04:15:28;4.20;99.90
29501;DHT22;16450;50.288;10.966;2023-01-10T04:18:29;4.20;99.90
29501;DHT22;16450;50.288;10.966;2023-01-10T04:21:30;4.20;99.90
29501;DHT22;16450;50.288;10.966;2023-01-10T04:24:30;4.10;99.90
29501;DHT22;16450;50.288;10.966;2023-01-10T04:27:31;4.10;99.90
29501;DHT22;16450;50.288;10.966;2023-01-10T04:30:32;4.10;99.90
29501;DHT22;16450;50.288;10.966;2023-01-10T04:33:33;4.00;99.90
29501;DHT22;16450;50.288;10.966;2023-01-10T04:36:34;4.00;99.90
29501;DHT22;16450;50.288;10.966;2023-01-10T04:39:35;3.90;99.90
29501;DHT22;16450;50.288;10.966;2023-01-10T04:42:39;3.90;99.90
29501;DHT22;16450;50.288;10.966;2023-01-10T04:45:42;3.80;99.90
29501;DHT22;16450;50.288;10.966;2023-01-10T04:48:42;3.80;99.90
29501;DHT22;16450;50.288;10.966;2023-01-10T04:51:43;3.80;99.90
29501;DHT22;16450;50.288;10.966;2023-01-10T04:54:43;3.70;99.90
29501;DHT22;16450;50.288;10.966;2023-01-10T04:57:44;3.60;99.90
29501;DHT22;16450;50.288;10.966;2023-01-10T05:00:45;3.60;99.90
29501;DHT22;16450;50.288;10.966;2023-01-10T05:03:49;3.60;99.90
29501;DHT22;16450;50.288;10.966;2023-01-10T05:06:50;3.50;99.90
29501;DHT22;16450;50.288;10.966;2023-01-10T05:09:51;3.50;99.90
29501;DHT22;16450;50.288;10.966;2023-01-10T05:12:51;3.60;99.90
29501;DHT22;16450;50.288;10.966;2023-01-10T05:15:56;3.60;99.90
29501;DHT22;16450;50.288;10.966;2023-01-10T05:18:58;3.60;99.90
29501;DHT22;16450;50.288;10.966;2023-01-10T05:21:58;3.60;99.90
29501;DHT22;16450;50.288;10.966;2023-01-10T05:24:59;3.60;99.90
29501;DHT22;16450;50.288;10.966;2023-01-10T05:28:00;3.60;99.90
29501;DHT22;16450;50.288;10.966;2023-01-10T05:31:01;3.60;99.90
29501;DHT22;16450;50.288;10.966;2023-01-10T05:34:01;3.60;99.90
29501;DHT22;16450;50.288;10.966;2023-01-10T05:37:02;3.50;99.90
29501;DHT22;16450;50.288;10.966;2023-01-10T05:40:03;3.50;99.90
29501;DHT22;16450;50.288;10.966;2023-01-10T05:43:04;3.50;99.90
29501;DHT22;16450;50.288;10.966;2023-01-10T05:46:05;3.50;99.90
29501;DHT22;16450;50.288;10.966;2023-01-10T05:49:05;3.50;99.90
29501;DHT22;16450;50.288;10.966;2023-01-10T05:52:06;3.50;99.90
29501;DHT22;16450;50.288;10.966;2023-01-10T05:55:07;3.50;99.90
29501;DHT22;16450;50.288;10.966;2023-01-10T05:58:07;3.50;99.90
29501;DHT22;16450;50.288;10.966;2023-01-10T06:01:10;3.50;99.90
29501;DHT22;16450;50.288;10.966;2023-01-10T06:04:11;3.50;99.90
29501;DHT22;16450;50.288;10.966;2023-01-10T06:07:11;3.50;99.90
29501;DHT22;16450;50.288;10.966;2023-01-10T06:10:12;3.50;99.90
29501;DHT22;16450;50.288;10.966;2023-01-10T06:13:12;3.60;99.90
29501;DHT22;16450;50.288;10.966;2023-01-10T06:16:13;3.50;99.90
29501;DHT22;16450;50.288;10.966;2023-01-10T06:19:14;3.50;99.90
29501;DHT22;16450;50.288;10.966;2023-01-10T06:22:14;3.50;99.90
29501;DHT22;16450;50.288;10.966;2023-01-10T06:25:15;3.60;99.90
29501;DHT22;16450;50.288;10.966;2023-01-10T06:28:16;3.50;99.90
29501;DHT22;16450;50.288;10.966;2023-01-10T06:31:16;3.50;99.90
29501;DHT22;16450;50.288;10.966;2023-01-10T06:34:17;3.50;99.90
29501;DHT22;16450;50.288;10.966;2023-01-10T06:37:18;3.40;99.90
29501;DHT22;16450;50.288;10.966;2023-01-10T06:40:18;3.40;99.90
29501;DHT22;16450;50.288;10.966;2023-01-10T06:43:19;3.30;99.90
29501;DHT22;16450;50.288;10.966;2023-01-10T06:46:20;3.20;99.90
29501;DHT22;16450;50.288;10.966;2023-01-10T06:49:20;3.10;99.90
29501;DHT22;16450;50.288;10.966;2023-01-10T06:52:21;3.00;99.90
29501;DHT22;16450;50.288;10.966;2023-01-10T06:55:21;3.00;99.90
29501;DHT22;16450;50.288;10.966;2023-01-10T06:58:22;2.90;99.90
29501;DHT22;16450;50.288;10.966;2023-01-10T07:01:23;2.90;99.90
29501;DHT22;16450;50.288;10.966;2023-01-10T07:04:24;2.90;99.90
29501;DHT22;16450;50.288;10.966;2023-01-10T07:07:26;2.90;99.90
29501;DHT22;16450;50.288;10.966;2023-01-10T07:10:27;2.90;99.90
29501;DHT22;16450;50.288;10.966;2023-01-10T07:13:27;2.90;99.90
29501;DHT22;16450;50.288;10.966;2023-01-10T07:16:28;2.90;99.90
29501;DHT22;16450;50.288;10.966;2023-01-10T07:19:29;2.90;99.90
29501;DHT22;16450;50.288;10.966;2023-01-10T07:22:29;2.90;99.90
29501;DHT22;16450;50.288;10.966;2023-01-10T07:25:30;2.90;99.90
29501;DHT22;16450;50.288;10.966;2023-01-10T07:28:31;2.90;99.90
29501;DHT22;16450;50.288;10.966;2023-01-10T07:31:33;3.00;99.90
29501;DHT22;16450;50.288;10.966;2023-01-10T07:34:34;3.00;99.90
29501;DHT22;16450;50.288;10.966;2023-01-10T07:37:35;3.00;99.90
29501;DHT22;16450;50.288;10.966;2023-01-10T07:40:38;3.10;99.90
29501;DHT22;16450;50.288;10.966;2023-01-10T07:43:39;3.10;99.90
29501;DHT22;16450;50.288;10.966;2023-01-10T07:46:39;3.20;99.90
29501;DHT22;16450;50.288;10.966;2023-01-10T07:49:40;3.20;99.90
29501;DHT22;16450;50.288;10.966;2023-01-10T07:52:41;3.20;99.90
29501;DHT22;16450;50.288;10.966;2023-01-10T07:55:42;3.20;99.90
29501;DHT22;16450;50.288;10.966;2023-01-10T07:58:45;3.20;99.90
29501;DHT22;16450;50.288;10.966;2023-01-10T08:01:45;3.30;99.90
29501;DHT22;16450;50.288;10.966;2023-01-10T08:04:47;3.30;99.90
29501;DHT22;16450;50.288;10.966;2023-01-10T08:07:48;3.40;99.90
29501;DHT22;16450;50.288;10.966;2023-01-10T08:10:49;3.40;99.90
29501;DHT22;16450;50.288;10.966;2023-01-10T08:13:49;3.40;99.90
29501;DHT22;16450;50.288;10.966;2023-01-10T08:16:50;3.50;99.90
29501;DHT22;16450;50.288;10.966;2023-01-10T08:19:51;3.50;99.90
29501;DHT22;16450;50.288;10.966;2023-01-10T08:22:51;3.60;99.90
29501;DHT22;16450;50.288;10.966;2023-01-10T08:25:52;3.60;99.90
29501;DHT22;16450;50.288;10.966;2023-01-10T08:28:53;3.60;99.90
29501;DHT22;16450;50.288;10.966;2023-01-10T08:31:54;3.70;99.90
29501;DHT22;16450;50.288;10.966;2023-01-10T08:34:55;3.70;99.90
29501;DHT22;16450;50.288;10.966;2023-01-10T08:37:59;3.80;99.90
29501;DHT22;16450;50.288;10.966;2023-01-10T08:41:00;3.80;99.90
29501;DHT22;16450;50.288;10.966;2023-01-10T08:44:00;3.90;99.90
29501;DHT22;16450;50.288;10.966;2023-01-10T08:47:01;3.90;99.90
29501;DHT22;16450;50.288;10.966;2023-01-10T08:50:02;3.90;99.90
29501;DHT22;16450;50.288;10.966;2023-01-10T08:53:03;4.00;99.90
29501;DHT22;16450;50.288;10.966;2023-01-10T08:56:04;4.00;99.90
29501;DHT22;16450;50.288;10.966;2023-01-10T08:59:05;4.00;99.90
29501;DHT22;16450;50.288;10.966;2023-01-10T09:02:11;4.00;99.90
29501;DHT22;16450;50.288;10.966;2023-01-10T09:05:12;4.00;99.90
29501;DHT22;16450;50.288;10.966;2023-01-10T09:08:13;4.00;99.90
29501;DHT22;16450;50.288;10.966;2023-01-10T09:11:13;4.10;99.90
29501;DHT22;16450;50.288;10.966;2023-01-10T09:14:14;4.10;99.90
29501;DHT22;16450;50.288;10.966;2023-01-10T09:17:15;4.10;99.90
29501;DHT22;16450;50.288;10.966;2023-01-10T09:20:16;4.10;99.90
29501;DHT22;16450;50.288;10.966;2023-01-10T09:23:20;4.10;99.90
29501;DHT22;16450;50.288;10.966;2023-01-10T09:26:21;4.20;99.90
29501;DHT22;16450;50.288;10.966;2023-01-10T09:29:22;4.20;99.90
29501;DHT22;16450;50.288;10.966;2023-01-10T09:32:23;4.20;99.90
29501;DHT22;16450;50.288;10.966;2023-01-10T09:35:24;4.30;99.90
29501;DHT22;16450;50.288;10.966;2023-01-10T09:38:25;4.30;99.90
29501;DHT22;16450;50.288;10.966;2023-01-10T09:42:09;4.30;99.90
29501;DHT22;16450;50.288;10.966;2023-01-10T09:45:36;4.30;99.90
29501;DHT22;16450;50.288;10.966;2023-01-10T09:52:01;4.30;99.90
29501;DHT22;16450;50.288;10.966;2023-01-10T09:55:32;4.40;99.90
29501;DHT22;16450;50.288;10.966;2023-01-10T09:58:35;4.60;99.90
29501;DHT22;16450;50.288;10.966;2023-01-10T10:01:37;4.80;99.90
29501;DHT22;16450;50.288;10.966;2023-01-10T10:04:39;5.00;99.90
29501;DHT22;16450;50.288;10.966;2023-01-10T10:07:40;5.30;99.90
29501;DHT22;16450;50.288;10.966;2023-01-10T10:14:00;5.80;99.90
29501;DHT22;16450;50.288;10.966;2023-01-10T10:20:21;6.10;99.90
29501;DHT22;16450;50.288;10.966;2023-01-10T10:26:34;6.00;99.90
29501;DHT22;16450;50.288;10.966;2023-01-10T10:36:25;5.80;99.90
29501;DHT22;16450;50.288;10.966;2023-01-10T10:39:36;5.70;99.90
29501;DHT22;16450;50.288;10.966;2023-01-10T10:42:42;5.60;99.90
29501;DHT22;16450;50.288;10.966;2023-01-10T10:49:05;5.40;99.90
29501;DHT22;16450;50.288;10.966;2023-01-10T10:52:25;5.30;99.90
29501;DHT22;16450;50.288;10.966;2023-01-10T10:55:29;5.20;99.90
29501;DHT22;16450;50.288;10.966;2023-01-10T10:58:31;5.20;99.90
29501;DHT22;16450;50.288;10.966;2023-01-10T11:01:32;5.10;99.90
29501;DHT22;16450;50.288;10.966;2023-01-10T11:04:32;5.10;99.90
29501;DHT22;16450;50.288;10.966;2023-01-10T11:07:36;5.10;99.90
29501;DHT22;16450;50.288;10.966;2023-01-10T11:10:36;5.10;99.90
29501;DHT22;16450;50.288;10.966;2023-01-10T11:14:07;5.00;99.90
29501;DHT22;16450;50.288;10.966;2023-01-10T11:17:24;5.10;99.90
29501;DHT22;16450;50.288;10.966;2023-01-10T11:20:25;5.10;99.90
29501;DHT22;16450;50.288;10.966;2023-01-10T11:23:33;5.10;99.90
29501;DHT22;16450;50.288;10.966;2023-01-10T11:26:36;5.10;99.90
29501;DHT22;16450;50.288;10.966;2023-01-10T11:29:49;5.10;99.90
29501;DHT22;16450;50.288;10.966;2023-01-10T11:32:56;5.10;99.90
29501;DHT22;16450;50.288;10.966;2023-01-10T11:36:04;5.20;99.90
29501;DHT22;16450;50.288;10.966;2023-01-10T11:39:05;5.20;99.90
29501;DHT22;16450;50.288;10.966;2023-01-10T11:42:28;5.20;99.90
29501;DHT22;16450;50.288;10.966;2023-01-10T11:45:32;5.30;99.90
29501;DHT22;16450;50.288;10.966;2023-01-10T11:48:41;5.30;99.90
29501;DHT22;16450;50.288;10.966;2023-01-10T11:51:48;5.40;99.90
29501;DHT22;16450;50.288;10.966;2023-01-10T11:54:50;5.40;99.90
29501;DHT22;16450;50.288;10.966;2023-01-10T11:58:08;5.40;99.90
29501;DHT22;16450;50.288;10.966;2023-01-10T12:01:38;5.40;99.90
29501;DHT22;16450;50.288;10.966;2023-01-10T12:04:42;5.40;99.90
29501;DHT22;16450;50.288;10.966;2023-01-10T12:07:58;5.40;99.90
29501;DHT22;16450;50.288;10.966;2023-01-10T12:11:25;5.40;99.90
29501;DHT22;16450;50.288;10.966;2023-01-10T12:14:26;5.40;99.90
29501;DHT22;16450;50.288;10.966;2023-01-10T12:17:34;5.30;99.90
29501;DHT22;16450;50.288;10.966;2023-01-10T12:20:46;5.40;99.90
29501;DHT22;16450;50.288;10.966;2023-01-10T12:23:48;5.40;99.90
29501;DHT22;16450;50.288;10.966;2023-01-10T12:26:50;5.50;99.90
29501;DHT22;16450;50.288;10.966;2023-01-10T12:33:13;5.60;99.90
29501;DHT22;16450;50.288;10.966;2023-01-10T12:39:57;5.70;99.90
29501;DHT22;16450;50.288;10.966;2023-01-10T12:43:10;5.70;99.90
29501;DHT22;16450;50.288;10.966;2023-01-10T12:46:46;5.70;99.90
29501;DHT22;16450;50.288;10.966;2023-01-10T12:53:24;5.70;99.90
29501;DHT22;16450;50.288;10.966;2023-01-10T12:56:28;5.70;99.90
29501;DHT22;16450;50.288;10.966;2023-01-10T12:59:36;5.70;99.90
29501;DHT22;16450;50.288;10.966;2023-01-10T13:02:42;5.70;99.90
29501;DHT22;16450;50.288;10.966;2023-01-10T13:05:46;5.60;99.90
29501;DHT22;16450;50.288;10.966;2023-01-10T13:08:49;5.60;99.90
29501;DHT22;16450;50.288;10.966;2023-01-10T13:12:10;5.60;99.90
29501;DHT22;16450;50.288;10.966;2023-01-10T13:15:21;5.50;99.90
29501;DHT22;16450;50.288;10.966;2023-01-10T13:18:28;5.50;99.90
29501;DHT22;16450;50.288;10.966;2023-01-10T13:21:30;5.40;99.90
29501;DHT22;16450;50.288;10.966;2023-01-10T13:24:31;5.40;99.90
29501;DHT22;16450;50.288;10.966;2023-01-10T13:27:33;5.40;99.90
29501;DHT22;16450;50.288;10.966;2023-01-10T13:30:36;5.40;99.90
29501;DHT22;16450;50.288;10.966;2023-01-10T13:40:00;5.30;99.90
29501;DHT22;16450;50.288;10.966;2023-01-10T13:43:31;5.30;99.90
29501;DHT22;16450;50.288;10.966;2023-01-10T13:46:38;5.30;99.90
29501;DHT22;16450;50.288;10.966;2023-01-10T13:49:42;5.30;99.90
29501;DHT22;16450;50.288;10.966;2023-01-10T13:52:43;5.30;99.90
29501;DHT22;16450;50.288;10.966;2023-01-10T13:58:53;5.30;99.90
29501;DHT22;16450;50.288;10.966;2023-01-10T14:02:26;5.20;99.90
29501;DHT22;16450;50.288;10.966;2023-01-10T14:05:28;5.20;99.90
29501;DHT22;16450;50.288;10.966;2023-01-10T14:08:30;5.20;99.90
29501;DHT22;16450;50.288;10.966;2023-01-10T14:11:49;5.30;99.90
29501;DHT22;16450;50.288;10.966;2023-01-10T14:14:57;5.10;99.90
29501;DHT22;16450;50.288;10.966;2023-01-10T14:18:02;5.20;99.90
29501;DHT22;16450;50.288;10.966;2023-01-10T14:21:07;5.10;99.90
29501;DHT22;16450;50.288;10.966;2023-01-10T14:24:25;5.10;99.90
29501;DHT22;16450;50.288;10.966;2023-01-10T14:27:44;5.10;99.90
29501;DHT22;16450;50.288;10.966;2023-01-10T14:31:11;5.10;99.90
29501;DHT22;16450;50.288;10.966;2023-01-10T14:34:22;5.10;99.90
29501;DHT22;16450;50.288;10.966;2023-01-10T14:37:28;5.10;99.90
29501;DHT22;16450;50.288;10.966;2023-01-10T14:43:48;5.10;99.90
29501;DHT22;16450;50.288;10.966;2023-01-10T14:46:54;5.10;99.90
29501;DHT22;16450;50.288;10.966;2023-01-10T14:49:56;5.10;99.90
29501;DHT22;16450;50.288;10.966;2023-01-10T14:53:00;5.10;99.90
29501;DHT22;16450;50.288;10.966;2023-01-10T14:56:01;5.10;99.90
29501;DHT22;16450;50.288;10.966;2023-01-10T14:59:40;5.10;99.90
29501;DHT22;16450;50.288;10.966;2023-01-10T15:02:45;5.10;99.90
29501;DHT22;16450;50.288;10.966;2023-01-10T15:05:50;5.10;99.90
29501;DHT22;16450;50.288;10.966;2023-01-10T15:08:56;5.10;99.90
29501;DHT22;16450;50.288;10.966;2023-01-10T15:11:58;5.10;99.90
29501;DHT22;16450;50.288;10.966;2023-01-10T15:15:14;5.10;99.90
29501;DHT22;16450;50.288;10.966;2023-01-10T15:21:28;5.00;99.90
29501;DHT22;16450;50.288;10.966;2023-01-10T15:24:33;5.00;99.90
29501;DHT22;16450;50.288;10.966;2023-01-10T15:27:36;5.00;99.90
29501;DHT22;16450;50.288;10.966;2023-01-10T15:30:36;5.00;99.90
29501;DHT22;16450;50.288;10.966;2023-01-10T15:33:44;4.90;99.90
29501;DHT22;16450;50.288;10.966;2023-01-10T15:36:49;4.90;99.90
29501;DHT22;16450;50.288;10.966;2023-01-10T15:39:53;4.90;99.90
29501;DHT22;16450;50.288;10.966;2023-01-10T15:43:33;4.80;99.90
29501;DHT22;16450;50.288;10.966;2023-01-10T15:46:34;4.80;99.90
29501;DHT22;16450;50.288;10.966;2023-01-10T15:49:36;4.70;99.90
29501;DHT22;16450;50.288;10.966;2023-01-10T15:52:47;4.60;99.90
29501;DHT22;16450;50.288;10.966;2023-01-10T15:55:53;4.60;99.90
29501;DHT22;16450;50.288;10.966;2023-01-10T15:58:56;4.50;99.90
29501;DHT22;16450;50.288;10.966;2023-01-10T16:02:20;4.50;99.90
29501;DHT22;16450;50.288;10.966;2023-01-10T16:05:21;4.40;99.90
29501;DHT22;16450;50.288;10.966;2023-01-10T16:08:27;4.40;99.90
29501;DHT22;16450;50.288;10.966;2023-01-10T16:11:46;4.30;99.90
29501;DHT22;16450;50.288;10.966;2023-01-10T16:15:14;4.30;99.90
29501;DHT22;16450;50.288;10.966;2023-01-10T16:18:16;4.20;99.90
29501;DHT22;16450;50.288;10.966;2023-01-10T16:21:17;4.20;99.90
29501;DHT22;16450;50.288;10.966;2023-01-10T16:24:26;4.10;99.90
29501;DHT22;16450;50.288;10.966;2023-01-10T16:27:27;4.00;99.90
29501;DHT22;16450;50.288;10.966;2023-01-10T16:30:31;4.00;99.90
29501;DHT22;16450;50.288;10.966;2023-01-10T16:33:33;4.00;99.90
29501;DHT22;16450;50.288;10.966;2023-01-10T16:36:34;4.00;99.90
29501;DHT22;16450;50.288;10.966;2023-01-10T16:39:34;3.90;99.90
29501;DHT22;16450;50.288;10.966;2023-01-10T16:42:35;3.90;99.90
29501;DHT22;16450;50.288;10.966;2023-01-10T16:45:56;3.80;99.90
29501;DHT22;16450;50.288;10.966;2023-01-10T16:49:00;3.80;99.90
29501;DHT22;16450;50.288;10.966;2023-01-10T16:52:01;3.80;99.90
29501;DHT22;16450;50.288;10.966;2023-01-10T16:55:16;3.80;99.90
29501;DHT22;16450;50.288;10.966;2023-01-10T16:58:20;3.80;99.90
29501;DHT22;16450;50.288;10.966;2023-01-10T17:01:24;3.80;99.90
29501;DHT22;16450;50.288;10.966;2023-01-10T17:04:27;3.80;99.90
29501;DHT22;16450;50.288;10.966;2023-01-10T17:07:30;3.80;99.90
29501;DHT22;16450;50.288;10.966;2023-01-10T17:10:33;3.80;99.90
29501;DHT22;16450;50.288;10.966;2023-01-10T17:13:38;3.80;99.90
29501;DHT22;16450;50.288;10.966;2023-01-10T17:16:39;3.80;99.90
29501;DHT22;16450;50.288;10.966;2023-01-10T17:19:40;3.80;99.90
29501;DHT22;16450;50.288;10.966;2023-01-10T17:22:42;3.70;99.90
29501;DHT22;16450;50.288;10.966;2023-01-10T17:25:42;3.70;99.90
29501;DHT22;16450;50.288;10.966;2023-01-10T17:28:44;3.70;99.90
29501;DHT22;16450;50.288;10.966;2023-01-10T17:31:45;3.60;99.90
29501;DHT22;16450;50.288;10.966;2023-01-10T17:34:46;3.60;99.90
29501;DHT22;16450;50.288;10.966;2023-01-10T17:37:50;3.60;99.90
29501;DHT22;16450;50.288;10.966;2023-01-10T17:40:51;3.60;99.90
29501;DHT22;16450;50.288;10.966;2023-01-10T17:43:52;3.50;99.90
29501;DHT22;16450;50.288;10.966;2023-01-10T17:46:52;3.50;99.90
29501;DHT22;16450;50.288;10.966;2023-01-10T17:49:56;3.50;99.90
29501;DHT22;16450;50.288;10.966;2023-01-10T17:52:57;3.50;99.90
29501;DHT22;16450;50.288;10.966;2023-01-10T17:55:57;3.50;99.90
29501;DHT22;16450;50.288;10.966;2023-01-10T17:59:00;3.50;99.90
29501;DHT22;16450;50.288;10.966;2023-01-10T18:02:01;3.50;99.90
29501;DHT22;16450;50.288;10.966;2023-01-10T18:05:01;3.50;99.90
29501;DHT22;16450;50.288;10.966;2023-01-10T18:08:02;3.50;99.90
29501;DHT22;16450;50.288;10.966;2023-01-10T18:11:04;3.50;99.90
29501;DHT22;16450;50.288;10.966;2023-01-10T18:14:05;3.50;99.90
29501;DHT22;16450;50.288;10.966;2023-01-10T18:17:24;3.40;99.90
29501;DHT22;16450;50.288;10.966;2023-01-10T18:20:25;3.40;99.90
29501;DHT22;16450;50.288;10.966;2023-01-10T18:23:27;3.40;99.90
29501;DHT22;16450;50.288;10.966;2023-01-10T18:26:29;3.40;99.90
29501;DHT22;16450;50.288;10.966;2023-01-10T18:29:30;3.40;99.90
29501;DHT22;16450;50.288;10.966;2023-01-10T18:32:30;3.40;99.90
29501;DHT22;16450;50.288;10.966;2023-01-10T18:35:31;3.40;99.90
29501;DHT22;16450;50.288;10.966;2023-01-10T18:38:33;3.40;99.90
29501;DHT22;16450;50.288;10.966;2023-01-10T18:41:34;3.30;99.90
29501;DHT22;16450;50.288;10.966;2023-01-10T18:44:36;3.30;99.90
29501;DHT22;16450;50.288;10.966;2023-01-10T18:47:36;3.30;99.90
29501;DHT22;16450;50.288;10.966;2023-01-10T18:50:37;3.40;99.90
29501;DHT22;16450;50.288;10.966;2023-01-10T18:53:38;3.40;99.90
29501;DHT22;16450;50.288;10.966;2023-01-10T18:56:39;3.40;99.90
29501;DHT22;16450;50.288;10.966;2023-01-10T18:59:40;3.30;99.90
29501;DHT22;16450;50.288;10.966;2023-01-10T19:02:40;3.40;99.90
29501;DHT22;16450;50.288;10.966;2023-01-10T19:05:41;3.40;99.90
29501;DHT22;16450;50.288;10.966;2023-01-10T19:08:42;3.40;99.90
29501;DHT22;16450;50.288;10.966;2023-01-10T19:11:43;3.40;99.90
29501;DHT22;16450;50.288;10.966;2023-01-10T19:14:44;3.40;99.90
29501;DHT22;16450;50.288;10.966;2023-01-10T19:17:45;3.40;99.90
29501;DHT22;16450;50.288;10.966;2023-01-10T19:20:50;3.40;99.90
29501;DHT22;16450;50.288;10.966;2023-01-10T19:23:53;3.40;99.90
29501;DHT22;16450;50.288;10.966;2023-01-10T19:26:57;3.40;99.90
29501;DHT22;16450;50.288;10.966;2023-01-10T19:29:58;3.40;99.90
29501;DHT22;16450;50.288;10.966;2023-01-10T19:32:59;3.40;99.90
29501;DHT22;16450;50.288;10.966;2023-01-10T19:36:06;3.40;99.90
29501;DHT22;16450;50.288;10.966;2023-01-10T19:39:08;3.40;99.90
29501;DHT22;16450;50.288;10.966;2023-01-10T19:42:10;3.40;99.90
29501;DHT22;16450;50.288;10.966;2023-01-10T19:45:10;3.40;99.90
29501;DHT22;16450;50.288;10.966;2023-01-10T19:48:11;3.40;99.90
29501;DHT22;16450;50.288;10.966;2023-01-10T19:51:12;3.40;99.90
29501;DHT22;16450;50.288;10.966;2023-01-10T19:54:13;3.40;99.90
29501;DHT22;16450;50.288;10.966;2023-01-10T19:57:14;3.40;99.90
29501;DHT22;16450;50.288;10.966;2023-01-10T20:00:15;3.30;99.90
29501;DHT22;16450;50.288;10.966;2023-01-10T20:03:15;3.30;99.90
29501;DHT22;16450;50.288;10.966;2023-01-10T20:06:21;3.30;99.90
29501;DHT22;16450;50.288;10.966;2023-01-10T20:09:23;3.30;99.90
29501;DHT22;16450;50.288;10.966;2023-01-10T20:12:24;3.30;99.90
29501;DHT22;16450;50.288;10.966;2023-01-10T20:15:25;3.30;99.90
29501;DHT22;16450;50.288;10.966;2023-01-10T20:18:26;3.30;99.90
29501;DHT22;16450;50.288;10.966;2023-01-10T20:21:26;3.30;99.90
29501;DHT22;16450;50.288;10.966;2023-01-10T20:24:27;3.30;99.90
29501;DHT22;16450;50.288;10.966;2023-01-10T20:27:28;3.30;99.90
29501;DHT22;16450;50.288;10.966;2023-01-10T20:30:29;3.30;99.90
29501;DHT22;16450;50.288;10.966;2023-01-10T20:33:29;3.30;99.90
29501;DHT22;16450;50.288;10.966;2023-01-10T20:36:30;3.20;99.90
29501;DHT22;16450;50.288;10.966;2023-01-10T20:39:31;3.30;99.90
29501;DHT22;16450;50.288;10.966;2023-01-10T20:42:32;3.30;99.90
29501;DHT22;16450;50.288;10.966;2023-01-10T20:45:33;3.30;99.90
29501;DHT22;16450;50.288;10.966;2023-01-10T20:48:34;3.30;99.90
29501;DHT22;16450;50.288;10.966;2023-01-10T20:51:34;3.30;99.90